This is the latest recevied weather packets stored in our database for station/object SQ5AAG-2. If no packets are shown the sender has not sent any weather packets the latest 1 day(s).
| Time | Temp. | Humidity | Pressure | Rain* | Wind** | Luminosity | Snow |
|---|---|---|---|---|---|---|---|
| 1836274711 | 13.33° C | 93% | 1008.7 hPa | 0 mm | 0 m/s | - | - |
| 1836274561 | 13.33° C | 93% | 1008.8 hPa | 0 mm | 0 m/s | - | - |
| 1836274410 | 13.33° C | 93% | 1008.8 hPa | 0 mm | 0 m/s | - | - |
| 1836274261 | 13.33° C | 93% | 1008.7 hPa | 0 mm | 0 m/s | - | - |
| 1836274110 | 13.33° C | 93% | 1008.8 hPa | 0 mm | 0 m/s | - | - |
| 1778019356 | 16.67° C | 72% | 991.2 hPa | 0 mm | 0.45 m/s, 180° | - | - |
| 1778019056 | 16.67° C | 72% | 991.2 hPa | 0 mm | 0.45 m/s, 135° | - | - |
| 1778018756 | 16.67° C | 71% | 991.2 hPa | 0 mm | 0 m/s | - | - |
| 1778018455 | 17.22° C | 71% | 991.2 hPa | 0 mm | 0 m/s | - | - |
| 1778018156 | 17.22° C | 71% | 991.3 hPa | 0 mm | 0 m/s | - | - |
| 1778017855 | 17.22° C | 73% | 991.2 hPa | 0 mm | 2.68 m/s, 180° | - | - |
| 1778017555 | 17.22° C | 72% | 991.3 hPa | 0 mm | 0 m/s | - | - |
| 1778017254 | 17.22° C | 69% | 991.2 hPa | 0 mm | 0 m/s | - | - |
| 1778016954 | 17.22° C | 69% | 991.2 hPa | 0 mm | 0.45 m/s, 135° | - | - |
| 1778016659 | 15.56° C | - | - | - | 0 m/s | - | - |
| 1778016654 | 17.22° C | 68% | 991.2 hPa | 0 mm | 0 m/s | - | - |
| 1778016353 | 17.78° C | 70% | 991.1 hPa | 0 mm | 0 m/s | - | - |
| 1778016065 | 17.78° C | 68% | 991.1 hPa | 0 mm | 0.45 m/s, 180° | - | - |
| 1778015753 | 17.78° C | 67% | 991.2 hPa | 0 mm | 0 m/s | - | - |
| 1778015452 | 17.78° C | 66% | 991.1 hPa | 0 mm | 1.79 m/s, 180° | - | - |
| 1778015152 | 17.78° C | 66% | 991.1 hPa | 0 mm | 0 m/s | - | - |
| 1778014852 | 18.33° C | 63% | 991.3 hPa | 0 mm | 0.45 m/s, 180° | - | - |
| 1778014552 | 18.33° C | 62% | 991.1 hPa | 0 mm | 0.45 m/s, 135° | - | - |
| 1778014251 | 18.33° C | 60% | 991.1 hPa | 0 mm | 1.34 m/s, 157° | - | - |
| 1778013951 | 18.89° C | 59% | 991.1 hPa | 0 mm | 0 m/s | - | - |
* Rain latest hour (hover to see other rain measurements)
** Current wind speed in m/s (hover to see current wind gust speed)